Time;durP1;ratioP1;P1;durP2;ratioP2;P2;SDS_P1;SDS_P2;PMS_P1;PMS_P2;Temp;Humidity;BMP_temperature;BMP_pressure;BME280_temperature;BME280_humidity;BME280_pressure;Samples;Min_cycle;Max_cycle;Signal;HPM_P1;HPM_P2
2022/05/07 00:02:11;;;;;;;34.13;23.77;;;;;;;12.57;100.00;100915.06;5066826;28;20035;-84
2022/05/07 00:04:38;;;;;;;33.80;24.30;;;;;;;12.57;100.00;100912.41;5055984;28;20029;-83
2022/05/07 00:07:05;;;;;;;36.63;23.25;;;;;;;12.62;100.00;100912.75;5067646;28;20064;-83
2022/05/07 00:09:35;;;;;;;32.63;22.95;;;;;;;12.64;100.00;100916.91;5060605;28;20036;-83
2022/05/07 00:12:01;;;;;;;33.50;22.80;;;;;;;12.59;100.00;100908.63;5060952;28;20112;-83
2022/05/07 00:14:27;;;;;;;31.08;23.98;;;;;;;12.59;100.00;100908.63;5068699;28;20021;-83
2022/05/07 00:19:38;;;;;;;35.47;24.75;;;;;;;12.48;100.00;100900.94;5071642;28;20040;-85
2022/05/07 00:22:04;;;;;;;39.80;25.02;;;;;;;12.50;100.00;100906.91;5059471;28;20033;-83
2022/05/07 00:24:30;;;;;;;36.05;25.13;;;;;;;12.52;100.00;100893.47;5069479;28;20058;-82
2022/05/07 00:26:55;;;;;;;40.65;25.90;;;;;;;12.52;100.00;100901.44;5055346;28;20028;-85
2022/05/07 00:29:21;;;;;;;40.47;26.13;;;;;;;12.47;100.00;100890.47;5065327;28;20032;-84
2022/05/07 00:31:46;;;;;;;38.58;25.50;;;;;;;12.48;100.00;100900.94;5060298;28;20039;-84
2022/05/07 00:34:12;;;;;;;40.42;25.90;;;;;;;12.49;100.00;100902.63;5044523;28;20029;-84
2022/05/07 00:36:38;;;;;;;38.90;26.88;;;;;;;12.47;100.00;100891.31;5045480;28;20548;-83
2022/05/07 00:39:04;;;;;;;44.25;27.05;;;;;;;12.48;100.00;100889.47;5054860;28;20059;-85
2022/05/07 00:41:29;;;;;;;44.85;27.60;;;;;;;12.60;100.00;100890.81;5059019;28;20033;-81
2022/05/07 00:43:55;;;;;;;39.00;27.10;;;;;;;12.61;100.00;100890.66;5072584;28;20028;-86
2022/05/07 00:46:25;;;;;;;40.58;27.25;;;;;;;12.51;100.00;100889.97;5041844;28;20044;-83
2022/05/07 00:48:52;;;;;;;42.40;27.95;;;;;;;12.51;100.00;100889.97;5050497;28;20037;-81
2022/05/07 00:51:34;;;;;;;40.58;28.30;;;;;;;12.48;100.00;100892.97;5049113;28;20036;-82
2022/05/07 00:54:08;;;;;;;41.63;28.77;;;;;;;12.49;100.00;100881.34;5051386;28;20036;-84
2022/05/07 00:56:37;;;;;;;44.40;27.90;;;;;;;12.50;100.00;100883.00;5037881;28;20187;-81
2022/05/07 00:59:04;;;;;;;43.58;27.55;;;;;;;12.38;100.00;100881.66;5049372;28;20507;-82
2022/05/07 01:01:30;;;;;;;39.45;27.70;;;;;;;12.37;100.00;100877.34;5056759;28;20369;-83
2022/05/07 01:03:58;;;;;;;41.60;27.88;;;;;;;12.47;100.00;100867.38;5043810;28;20021;-83
2022/05/07 01:06:28;;;;;;;44.50;29.67;;;;;;;12.49;100.00;100876.03;5049003;28;20041;-80
2022/05/07 01:08:54;;;;;;;43.97;27.52;;;;;;;12.48;100.00;100877.03;5037254;28;20075;-81
2022/05/07 01:11:20;;;;;;;37.60;27.23;;;;;;;12.37;100.00;100874.69;5030851;28;20009;-81
2022/05/07 01:13:51;;;;;;;43.13;28.25;;;;;;;12.35;100.00;100874.03;5045003;28;20037;-80
2022/05/07 01:16:17;;;;;;;44.95;28.33;;;;;;;12.37;100.00;100872.03;5057659;28;20426;-82
2022/05/07 01:18:43;;;;;;;42.17;28.42;;;;;;;12.38;100.00;100868.38;5018575;28;20037;-85
2022/05/07 01:21:17;;;;;;;42.45;27.45;;;;;;;12.35;100.00;100868.72;5052215;28;20091;-81
2022/05/07 01:23:47;;;;;;;40.05;28.25;;;;;;;12.29;100.00;100875.53;5034816;28;20395;-83
2022/05/07 01:26:14;;;;;;;41.47;28.15;;;;;;;12.33;100.00;100866.19;5034552;28;20487;-82
2022/05/07 01:28:40;;;;;;;43.33;28.33;;;;;;;12.38;100.00;100863.06;5034486;28;20065;-81
2022/05/07 01:31:08;;;;;;;45.92;29.33;;;;;;;12.47;100.00;100862.06;5034303;28;20029;-80
2022/05/07 01:33:34;;;;;;;38.28;27.17;;;;;;;12.49;100.00;100859.25;5052314;28;20769;-80
2022/05/07 01:36:07;;;;;;;40.75;27.63;;;;;;;12.40;100.00;100861.06;5037643;28;20032;-81
2022/05/07 01:38:34;;;;;;;39.80;27.50;;;;;;;12.39;100.00;100857.56;5037648;28;20438;-81
2022/05/07 01:40:59;;;;;;;42.95;26.45;;;;;;;12.33;100.00;100854.72;5055569;28;20440;-81
2022/05/07 01:43:27;;;;;;;42.42;26.67;;;;;;;12.35;100.00;100858.06;5037592;28;20037;-81
2022/05/07 01:45:55;;;;;;;41.30;27.75;;;;;;;12.32;100.00;100855.75;5037722;28;20025;-80
2022/05/07 01:48:21;;;;;;;44.25;27.73;;;;;;;12.31;100.00;100848.75;5037891;28;20037;-83
2022/05/07 01:50:52;;;;;;;43.17;27.77;;;;;;;12.32;100.00;100853.09;5038269;28;20036;-84
2022/05/07 01:53:23;;;;;;;41.05;27.38;;;;;;;12.38;100.00;100847.13;5056073;28;20052;-82
2022/05/07 01:55:51;;;;;;;43.10;28.30;;;;;;;12.34;100.00;100845.78;5062631;28;20085;-81
2022/05/07 01:58:20;;;;;;;37.88;26.67;;;;;;;12.41;100.00;100852.94;5039431;28;20033;-82
2022/05/07 02:00:46;;;;;;;40.05;27.27;;;;;;;12.41;100.00;100847.63;5037328;28;20037;-81
2022/05/07 02:03:12;;;;;;;40.47;26.00;;;;;;;12.37;100.00;100845.44;5037822;28;20033;-81
2022/05/07 02:05:37;;;;;;;38.60;26.65;;;;;;;12.40;100.00;100848.59;5038015;28;20087;-82
2022/05/07 02:08:04;;;;;;;42.53;27.60;;;;;;;12.37;100.00;100842.78;5038070;28;20041;-79
2022/05/07 02:10:30;;;;;;;41.38;29.08;;;;;;;12.36;100.00;100846.47;5055979;28;20025;-79
2022/05/07 02:12:57;;;;;;;40.53;27.17;;;;;;;12.39;100.00;100844.28;5038266;28;20147;-80
2022/05/07 02:15:25;;;;;;;34.80;25.20;;;;;;;12.52;100.00;100848.28;5040820;28;20465;-81
2022/05/07 02:17:53;;;;;;;46.28;27.20;;;;;;;12.46;100.00;100849.78;5049678;28;20067;-79
2022/05/07 02:20:19;;;;;;;40.05;27.77;;;;;;;12.39;100.00;100841.63;5053712;28;20045;-80
2022/05/07 02:22:46;;;;;;;36.95;26.23;;;;;;;12.42;100.00;100840.47;5058713;28;20047;-83
2022/05/07 02:25:12;;;;;;;46.60;29.10;;;;;;;12.42;100.00;100837.81;5042135;28;20036;-81
2022/05/07 02:27:37;;;;;;;44.10;29.02;;;;;;;12.37;100.00;100840.13;5038053;28;20108;-82
2022/05/07 02:30:05;;;;;;;40.17;28.13;;;;;;;12.49;100.00;100833.50;5037588;28;20131;-82
2022/05/07 02:32:31;;;;;;;44.08;30.08;;;;;;;12.38;100.00;100839.97;5055047;28;20491;-80
2022/05/07 02:34:57;;;;;;;48.97;30.15;;;;;;;12.27;100.00;100836.78;5036758;28;20045;-81
2022/05/07 02:37:36;;;;;;;45.22;30.58;;;;;;;12.25;100.00;100841.47;5037188;28;20430;-81
2022/05/07 02:40:02;;;;;;;51.05;32.17;;;;;;;12.30;100.00;100839.97;5054487;28;20048;-81
2022/05/07 02:42:33;;;;;;;45.03;30.75;;;;;;;12.40;100.00;100830.00;5036519;28;20487;-81
2022/05/07 02:45:10;;;;;;;46.55;31.20;;;;;;;12.42;100.00;100828.03;5020371;28;20033;-81
2022/05/07 02:47:37;;;;;;;50.95;30.77;;;;;;;12.41;100.00;100830.84;5036613;28;20029;-81
2022/05/07 02:50:05;;;;;;;47.53;32.47;;;;;;;12.42;100.00;100835.16;5036379;28;20025;-84
2022/05/07 02:52:33;;;;;;;50.45;31.92;;;;;;;12.42;100.00;100828.03;5054301;28;20388;-84
2022/05/07 02:55:03;;;;;;;46.67;31.50;;;;;;;12.33;100.00;100829.00;5036630;28;20492;-81
2022/05/07 02:57:29;;;;;;;46.63;32.13;;;;;;;12.41;100.00;100830.84;5037214;28;20073;-82
2022/05/07 02:59:54;;;;;;;48.83;32.70;;;;;;;12.35;100.00;100828.84;5054163;28;20067;-79
2022/05/07 03:02:20;;;;;;;46.25;30.23;;;;;;;12.55;100.00;100830.16;5036179;28;20062;-80
2022/05/07 03:04:47;;;;;;;50.05;31.67;;;;;;;12.39;100.00;100828.31;5053834;28;20020;-81
2022/05/07 03:07:14;;;;;;;43.47;30.75;;;;;;;12.41;100.00;100823.69;5036022;28;20044;-81
2022/05/07 03:09:40;;;;;;;44.65;29.52;;;;;;;12.48;100.00;100831.00;5036883;28;20522;-82
2022/05/07 03:12:06;;;;;;;42.80;30.42;;;;;;;12.45;100.00;100821.53;5036298;28;20115;-81
2022/05/07 03:14:32;;;;;;;47.70;31.20;;;;;;;12.44;100.00;100822.53;5035968;28;20033;-82
2022/05/07 03:16:59;;;;;;;46.10;30.63;;;;;;;12.51;100.00;100826.19;5035989;28;20037;-81
2022/05/07 03:19:28;;;;;;;46.08;30.75;;;;;;;12.53;100.00;100826.03;5035766;28;20052;-80
2022/05/07 03:21:54;;;;;;;39.28;28.58;;;;;;;12.65;100.00;100820.19;5035939;28;20503;-81
2022/05/07 03:24:24;;;;;;;45.60;31.48;;;;;;;12.67;100.00;100825.31;5036014;28;20033;-82
2022/05/07 03:26:49;;;;;;;45.15;30.48;;;;;;;12.68;100.00;100825.16;5053804;28;20029;-83
2022/05/07 03:29:20;;;;;;;42.55;29.75;;;;;;;12.62;100.00;100827.66;5019845;28;20438;-81
2022/05/07 03:31:51;;;;;;;38.58;28.67;;;;;;;12.65;100.00;100825.50;5035980;28;20041;-80
2022/05/07 03:34:17;;;;;;;45.53;31.45;;;;;;;12.56;100.00;100831.81;5036575;28;20087;-82
2022/05/07 03:36:43;;;;;;;44.55;30.95;;;;;;;12.60;100.00;100825.16;5020140;28;20404;-80
2022/05/07 03:39:09;;;;;;;45.67;31.00;;;;;;;12.54;100.00;100825.84;5036782;28;20039;-81
2022/05/07 03:41:37;;;;;;;48.35;30.95;;;;;;;12.65;100.00;100828.16;5019463;28;20399;-81
2022/05/07 03:44:03;;;;;;;44.00;31.65;;;;;;;12.74;100.00;100821.84;5053339;28;20115;-81
2022/05/07 03:46:29;;;;;;;44.88;31.75;;;;;;;12.83;100.00;100822.63;5035433;28;20029;-81
2022/05/07 03:49:00;;;;;;;50.33;33.47;;;;;;;12.61;100.00;100821.53;5053335;28;20491;-81
2022/05/07 03:51:26;;;;;;;49.25;32.08;;;;;;;12.57;100.00;100828.16;5035663;28;20041;-80
2022/05/07 03:54:01;;;;;;;48.45;33.00;;;;;;;12.56;100.00;100829.16;5035568;28;20067;-81
2022/05/07 03:56:27;;;;;;;49.30;33.72;;;;;;;12.73;100.00;100828.13;5035126;28;20119;-81
2022/05/07 03:58:53;;;;;;;48.70;34.70;;;;;;;12.58;100.00;100824.50;5034747;28;20502;-82
2022/05/07 04:01:32;;;;;;;48.28;33.15;;;;;;;12.57;100.00;100830.81;5035270;28;20106;-81
2022/05/07 04:03:57;;;;;;;52.90;34.22;;;;;;;12.55;100.00;100832.81;5035178;28;20499;-80
2022/05/07 04:06:23;;;;;;;48.95;34.25;;;;;;;12.51;100.00;100834.16;5034869;28;20400;-82
2022/05/07 04:08:49;;;;;;;48.83;33.22;;;;;;;12.50;100.00;100827.16;5036728;28;20090;-81
2022/05/07 04:11:14;;;;;;;46.83;33.38;;;;;;;12.69;100.00;100834.81;5053007;28;20040;-81
2022/05/07 04:13:40;;;;;;;50.97;34.50;;;;;;;12.63;100.00;100830.16;5034927;28;20047;-82
2022/05/07 04:16:06;;;;;;;57.53;36.20;;;;;;;12.60;100.00;100840.28;5035168;28;20040;-86
2022/05/07 04:18:46;;;;;;;48.13;34.15;;;;;;;12.66;100.00;100832.47;5035244;28;20033;-82
2022/05/07 04:21:15;;;;;;;52.22;35.13;;;;;;;12.53;100.00;100834.81;5034938;28;20083;-83
2022/05/07 04:23:41;;;;;;;51.35;35.25;;;;;;;12.71;100.00;100840.78;5034714;28;20047;-83
2022/05/07 04:26:07;;;;;;;49.03;33.80;;;;;;;12.60;100.00;100835.81;5034779;28;20024;-83
2022/05/07 04:28:39;;;;;;;51.22;34.90;;;;;;;12.54;100.00;100833.81;5019026;28;20395;-81
2022/05/07 04:31:05;;;;;;;52.05;35.90;;;;;;;12.57;100.00;100833.47;5034855;28;20037;-84
2022/05/07 04:33:33;;;;;;;53.30;34.78;;;;;;;12.72;100.00;100837.13;5034696;28;20072;-83
2022/05/07 04:36:05;;;;;;;52.13;34.55;;;;;;;12.64;100.00;100839.78;5035734;28;20140;-87
2022/05/07 04:38:35;;;;;;;49.33;34.55;;;;;;;12.64;100.00;100842.44;5040544;28;20438;-80
2022/05/07 04:41:01;;;;;;;49.70;33.50;;;;;;;12.64;100.00;100842.44;5047987;28;20047;-81
2022/05/07 04:43:30;;;;;;;51.05;34.65;;;;;;;12.68;100.00;100842.94;5042862;28;20396;-86
2022/05/07 04:45:56;;;;;;;53.42;35.33;;;;;;;12.65;100.00;100844.13;5046703;28;20462;-82
2022/05/07 04:48:21;;;;;;;53.78;34.53;;;;;;;12.76;100.00;100846.41;5036304;28;20113;-84
2022/05/07 04:50:47;;;;;;;49.65;34.15;;;;;;;12.61;100.00;100845.44;5035656;28;20048;-81
2022/05/07 04:53:22;;;;;;;50.90;32.65;;;;;;;12.69;100.00;100845.44;5042229;28;20091;-83
2022/05/07 04:55:50;;;;;;;52.67;33.63;;;;;;;12.66;100.00;100848.41;5035400;28;20043;-83
2022/05/07 04:58:17;;;;;;;52.75;34.03;;;;;;;12.58;100.00;100848.44;5036274;28;20062;-83
2022/05/07 05:00:43;;;;;;;49.35;33.55;;;;;;;12.65;100.00;100854.75;5044852;28;20047;-80
2022/05/07 05:03:16;;;;;;;50.40;34.47;;;;;;;12.65;100.00;100849.44;5038987;28;20025;-81
2022/05/07 05:05:50;;;;;;;51.08;33.35;;;;;;;12.63;100.00;100846.09;5054767;28;20028;-80
2022/05/07 05:08:31;;;;;;;50.22;33.40;;;;;;;12.56;100.00;100849.63;5055252;28;20067;-81
2022/05/07 05:11:00;;;;;;;50.30;32.88;;;;;;;12.67;100.00;100844.78;5058222;28;20414;-80
2022/05/07 05:13:30;;;;;;;41.25;23.48;;;;;;;12.68;100.00;100851.75;5058512;28;20086;-83
2022/05/07 05:15:56;;;;;;;55.83;33.08;;;;;;;12.68;100.00;100853.59;5058439;28;20032;-81
2022/05/07 05:18:34;;;;;;;50.17;33.22;;;;;;;12.57;100.00;100852.09;5058260;28;20140;-81
2022/05/07 05:21:00;;;;;;;45.20;31.60;;;;;;;12.63;100.00;100848.75;5057889;28;20186;-81
2022/05/07 05:23:34;;;;;;;57.55;35.60;;;;;;;12.52;100.00;100850.94;5058402;28;20041;-84
2022/05/07 05:26:02;;;;;;;50.53;34.83;;;;;;;12.37;100.00;100856.91;5058639;28;20055;-83
2022/05/07 05:28:39;;;;;;;55.15;36.50;;;;;;;12.36;100.00;100865.06;5077009;28;20436;-86
2022/05/07 05:31:09;;;;;;;55.90;36.72;;;;;;;12.29;100.00;100864.06;5043394;28;20097;-83
2022/05/07 05:33:39;;;;;;;59.60;36.83;;;;;;;12.39;100.00;100852.25;5076994;28;20374;-81
2022/05/07 05:36:14;;;;;;;56.30;36.63;;;;;;;12.41;100.00;100868.03;5044425;28;20391;-82
2022/05/07 05:38:43;;;;;;;53.42;34.72;;;;;;;12.48;100.00;100860.25;5057960;28;20132;-83
2022/05/07 05:41:11;;;;;;;55.63;35.47;;;;;;;12.48;100.00;100869.03;5060140;28;20552;-85
2022/05/07 05:43:40;;;;;;;62.50;37.67;;;;;;;12.38;100.00;100863.06;5059969;28;20036;-85
2022/05/07 05:46:10;;;;;;;60.75;37.85;;;;;;;12.39;100.00;100867.38;5078729;28;20100;-86
2022/05/07 05:48:35;;;;;;;64.57;37.95;;;;;;;12.36;100.00;100862.41;5042789;28;20064;-84
2022/05/07 05:51:04;;;;;;;59.92;38.22;;;;;;;12.41;100.00;100862.72;5057809;28;20119;-83
2022/05/07 05:53:33;;;;;;;60.50;36.72;;;;;;;12.56;100.00;100865.56;5058628;28;20051;-84
2022/05/07 05:56:00;;;;;;;54.13;36.03;;;;;;;12.58;100.00;100868.88;5057386;28;20395;-85
2022/05/07 05:58:35;;;;;;;55.40;36.20;;;;;;;12.49;100.00;100870.72;5057196;28;20032;-83
2022/05/07 06:01:06;;;;;;;59.55;37.17;;;;;;;12.44;100.00;100870.38;5059379;28;20125;-84
2022/05/07 06:03:34;;;;;;;60.45;37.40;;;;;;;12.47;100.00;100864.72;5057402;28;20040;-83
2022/05/07 06:06:00;;;;;;;59.58;36.60;;;;;;;12.56;100.00;100871.69;5057284;28;20037;-84
2022/05/07 06:08:26;;;;;;;61.42;36.30;;;;;;;12.56;100.00;100876.19;5080253;28;20406;-82
2022/05/07 06:10:54;;;;;;;61.67;38.00;;;;;;;12.57;100.00;100878.69;5077298;28;20032;-83
2022/05/07 06:13:20;;;;;;;63.00;38.88;;;;;;;12.59;100.00;100876.69;5077111;28;20479;-84
2022/05/07 06:15:51;;;;;;;60.42;36.20;;;;;;;12.65;100.00;100877.84;5077139;28;20093;-84
2022/05/07 06:18:22;;;;;;;64.43;36.45;;;;;;;12.75;100.00;100876.69;5077057;28;20505;-83
2022/05/07 06:20:54;;;;;;;56.40;34.63;;;;;;;12.81;100.00;100876.00;5076915;28;20036;-81
2022/05/07 06:23:21;;;;;;;55.90;35.58;;;;;;;12.72;100.00;100878.84;5082213;28;20099;-82
2022/05/07 06:28:34;;;;;;;56.10;36.42;;;;;;;12.88;100.00;100882.34;5076953;28;20123;-84
2022/05/07 06:31:03;;;;;;;54.20;34.58;;;;;;;13.03;100.00;100885.13;5060757;28;20028;-86
2022/05/07 06:33:29;;;;;;;52.78;34.60;;;;;;;13.13;100.00;100887.63;5077547;28;20036;-82
2022/05/07 06:35:58;;;;;;;51.28;33.75;;;;;;;13.09;100.00;100883.66;5077553;28;20054;-83
2022/05/07 06:38:32;;;;;;;49.63;33.80;;;;;;;13.10;100.00;100893.28;5077787;28;20105;-81
2022/05/07 06:41:02;;;;;;;52.35;33.05;;;;;;;13.12;100.00;100888.66;5084340;28;20040;-84
2022/05/07 06:43:34;;;;;;;52.63;32.80;;;;;;;13.04;100.00;100885.94;5116444;28;20024;-81
2022/05/07 06:46:03;;;;;;;48.47;32.83;;;;;;;13.19;100.00;100886.97;5117262;28;20073;-84
2022/05/07 06:48:31;;;;;;;48.38;33.10;;;;;;;13.33;100.00;100886.25;5114001;28;20032;-90
2022/05/07 06:51:03;;;;;;;49.42;33.80;;;;;;;13.41;100.00;100888.91;5064534;28;20047;-86
2022/05/07 06:53:28;;;;;;;56.78;33.40;;;;;;;13.25;100.00;100888.94;5078094;28;20123;-81
2022/05/07 06:55:58;;;;;;;53.25;31.52;;;;;;;13.24;100.00;100882.78;5094969;28;20421;-82
2022/05/07 06:58:26;;;;;;;47.70;31.40;;;;;;;13.13;100.00;100885.78;5095398;28;20043;-82
2022/05/07 07:00:52;;;;;;;47.00;31.70;;;;;;;13.21;100.00;100888.44;5095137;28;20414;-81
2022/05/07 07:03:18;;;;;;;48.95;32.85;;;;;;;13.38;100.00;100889.25;5076785;28;20078;-82
2022/05/07 07:05:44;;;;;;;43.35;29.17;;;;;;;13.41;100.00;100889.72;5094780;28;20028;-84
2022/05/07 07:08:11;;;;;;;44.13;29.67;;;;;;;13.40;100.00;100897.88;5094234;28;20063;-86
2022/05/07 07:10:37;;;;;;;44.35;30.63;;;;;;;13.41;100.00;100888.91;5094278;28;20462;-82
2022/05/07 07:13:04;;;;;;;49.28;31.02;;;;;;;13.26;100.00;100890.59;5077005;28;20060;-84
2022/05/07 07:15:29;;;;;;;45.88;29.48;;;;;;;13.25;100.00;100888.94;5094095;28;20040;-85
2022/05/07 07:17:55;;;;;;;43.03;30.35;;;;;;;13.27;100.00;100890.44;5094609;28;20500;-87
2022/05/07 07:20:21;;;;;;;47.85;30.27;;;;;;;13.38;100.00;100890.06;5094552;28;20047;-83
2022/05/07 07:22:46;;;;;;;44.65;30.70;;;;;;;13.36;100.00;100889.41;5094464;28;20032;-86
2022/05/07 07:25:12;;;;;;;54.70;32.05;;;;;;;13.44;100.00;100888.56;5094322;28;20024;-85
2022/05/07 07:27:38;;;;;;;49.38;32.70;;;;;;;13.39;100.00;100885.56;5094263;28;20032;-86
2022/05/07 07:30:04;;;;;;;47.13;31.73;;;;;;;13.43;100.00;100892.22;5097272;28;20044;-83
2022/05/07 07:32:29;;;;;;;45.03;30.73;;;;;;;13.39;100.00;100889.06;5076259;28;20028;-83
2022/05/07 07:34:55;;;;;;;49.45;30.58;;;;;;;13.38;100.00;100884.75;5093441;28;20059;-85
2022/05/07 07:37:20;;;;;;;49.40;30.48;;;;;;;13.32;100.00;100887.28;5093724;28;20048;-83
2022/05/07 07:39:46;;;;;;;53.03;30.95;;;;;;;13.39;100.00;100888.22;5094192;28;20111;-85
2022/05/07 07:42:12;;;;;;;46.50;30.55;;;;;;;13.28;100.00;100886.78;5094659;28;20028;-86
2022/05/07 07:44:37;;;;;;;45.10;31.85;;;;;;;13.33;100.00;100887.06;5086487;28;20032;-85
2022/05/07 07:49:48;;;;;;;39.75;28.05;;;;;;;13.44;100.00;100896.53;5062112;28;20029;-84
2022/05/07 07:52:15;;;;;;;49.53;31.40;;;;;;;13.30;100.00;100894.56;5048792;28;20071;-83
2022/05/07 07:54:41;;;;;;;44.72;30.50;;;;;;;13.39;100.00;100890.88;5061307;28;20108;-84
2022/05/07 07:57:07;;;;;;;44.08;29.02;;;;;;;13.43;100.00;100892.22;5035909;28;20097;-85
2022/05/07 07:59:33;;;;;;;44.70;29.10;;;;;;;13.44;100.00;100893.88;5053432;28;20047;-81
2022/05/07 08:01:58;;;;;;;37.45;27.33;;;;;;;13.49;100.00;100891.50;5048250;28;20037;-82
2022/05/07 08:04:25;;;;;;;40.90;28.88;;;;;;;13.53;100.00;100902.66;5053137;28;20033;-83
2022/05/07 08:12:23;;;;;;;41.25;27.13;;;;;;;13.76;100.00;100903.56;5053568;28;20140;-83
2022/05/07 08:14:49;;;;;;;44.38;27.30;;;;;;;13.87;100.00;100906.69;5052549;28;20502;-89
2022/05/07 08:17:15;;;;;;;44.00;26.10;;;;;;;13.66;100.00;100901.09;5052653;28;20033;-82
2022/05/07 08:19:41;;;;;;;38.25;24.90;;;;;;;13.63;100.00;100909.44;5052689;28;20107;-84
2022/05/07 08:22:06;;;;;;;37.67;24.75;;;;;;;13.67;100.00;100907.28;5052665;28;20178;-86
2022/05/07 08:24:32;;;;;;;38.78;25.98;;;;;;;13.80;100.00;100905.72;5052762;28;20064;-84
2022/05/07 08:26:57;;;;;;;37.53;24.45;;;;;;;13.85;100.00;100905.22;5052246;28;20381;-85
2022/05/07 08:29:24;;;;;;;37.30;25.40;;;;;;;14.06;100.00;100905.41;5052191;28;20040;-82
2022/05/07 08:31:52;;;;;;;35.38;22.80;;;;;;;13.92;100.00;100914.97;5056573;28;20028;-84
2022/05/07 08:34:21;;;;;;;37.20;24.45;;;;;;;14.04;100.00;100914.59;5058313;28;20037;-83
2022/05/07 08:36:46;;;;;;;33.17;23.33;;;;;;;13.95;100.00;100914.63;5060349;28;20052;-82
2022/05/07 08:39:12;;;;;;;31.52;23.98;;;;;;;13.98;100.00;100908.97;5058885;28;20065;-87
2022/05/07 08:41:38;;;;;;;35.70;23.80;;;;;;;13.91;100.00;100908.00;5057159;28;20056;-85
2022/05/07 08:44:04;;;;;;;38.28;24.33;;;;;;;13.87;100.00;100922.66;5054265;28;20429;-85
2022/05/07 08:46:29;;;;;;;31.98;21.95;;;;;;;13.95;100.00;100914.63;5055386;28;20041;-84
2022/05/07 08:48:56;;;;;;;31.95;21.30;;;;;;;13.86;100.00;100915.69;5056705;28;20032;-84
2022/05/07 08:51:21;;;;;;;31.73;21.55;;;;;;;13.99;100.00;100910.63;5056726;28;20036;-85
2022/05/07 08:53:49;;;;;;;28.67;20.00;;;;;;;13.99;100.00;100921.28;5056701;28;20518;-86
2022/05/07 08:56:15;;;;;;;25.05;19.17;;;;;;;13.95;100.00;100917.28;5058096;28;20029;-87
2022/05/07 08:58:51;;;;;;;26.08;19.88;;;;;;;13.99;100.00;100915.94;5058302;28;20021;-86
2022/05/07 09:01:16;;;;;;;28.55;20.45;;;;;;;13.88;100.00;100919.00;5058303;28;20033;-84
2022/05/07 09:03:45;;;;;;;28.20;21.33;;;;;;;14.01;100.00;100918.44;5057763;28;20036;-85
2022/05/07 09:06:24;;;;;;;30.80;20.48;;;;;;;13.78;100.00;100917.56;5060666;28;20033;-83
2022/05/07 09:08:51;;;;;;;32.33;20.70;;;;;;;13.67;100.00;100918.75;5064009;28;20029;-86
2022/05/07 09:11:17;;;;;;;27.27;19.50;;;;;;;13.79;100.00;100912.03;5057796;28;20033;-83
2022/05/07 09:13:43;;;;;;;30.42;20.25;;;;;;;13.81;100.00;100918.03;5058692;28;20037;-84
2022/05/07 09:16:09;;;;;;;36.25;22.13;;;;;;;13.82;100.00;100914.34;5058909;28;20463;-84
2022/05/07 09:18:35;;;;;;;27.85;18.77;;;;;;;13.86;100.00;100920.16;5059177;28;20087;-87
2022/05/07 09:21:16;;;;;;;30.70;20.45;;;;;;;13.89;100.00;100917.16;5057649;28;20037;-83
2022/05/07 09:24:02;;;;;;;26.48;19.65;;;;;;;13.86;100.00;100917.50;5058082;28;20041;-83
2022/05/07 09:26:31;;;;;;;25.02;18.77;;;;;;;13.85;100.00;100924.66;5051823;28;20049;-84
2022/05/07 09:28:57;;;;;;;30.70;19.98;;;;;;;13.84;100.00;100912.38;5058953;28;20083;-83
2022/05/07 09:31:28;;;;;;;25.70;18.67;;;;;;;13.84;100.00;100923.03;5056191;28;20029;-86
2022/05/07 09:33:55;;;;;;;30.23;19.85;;;;;;;13.89;100.00;100925.97;5058035;28;20396;-82
2022/05/07 09:36:28;;;;;;;32.03;20.77;;;;;;;13.93;100.00;100921.13;5064393;28;20463;-83
2022/05/07 09:39:00;;;;;;;28.57;19.63;;;;;;;13.85;100.00;100914.00;5078244;28;20028;-83
2022/05/07 09:41:26;;;;;;;28.58;18.77;;;;;;;13.77;100.00;100919.38;5044086;28;20693;-86
2022/05/07 09:43:53;;;;;;;26.85;19.55;;;;;;;13.77;100.00;100914.06;5078709;28;20036;-83
2022/05/07 09:46:19;;;;;;;23.75;17.88;;;;;;;13.92;100.00;100908.81;5075179;28;20036;-82
2022/05/07 09:48:46;;;;;;;30.10;20.00;;;;;;;14.03;100.00;100916.44;5076787;28;20116;-80
2022/05/07 09:51:12;;;;;;;30.05;20.80;;;;;;;14.01;100.00;100912.28;5069605;28;20034;-79
2022/05/07 09:59:06;;;;;;;22.20;16.25;;;;;;;14.04;100.00;100912.75;5054157;28;20056;-80
2022/05/07 10:01:45;;;;;;;23.17;16.52;;;;;;;14.19;100.00;100904.84;5053063;28;20452;-82
2022/05/07 10:04:13;;;;;;;23.08;15.98;;;;;;;14.24;100.00;100907.81;5055116;28;20102;-82
2022/05/07 10:06:53;;;;;;;22.63;15.52;;;;;;;14.27;100.00;100902.97;5055698;28;20102;-82
2022/05/07 10:09:46;;;;;;;27.98;15.20;;;;;;;14.30;100.00;100907.94;5055174;28;20497;-85
2022/05/07 10:12:18;;;;;;;19.55;15.02;;;;;;;14.32;100.00;100899.75;5053850;28;20037;-85
2022/05/07 10:14:44;;;;;;;19.77;14.68;;;;;;;14.21;100.00;100902.84;5055261;28;20025;-85
2022/05/07 10:17:11;;;;;;;20.33;14.90;;;;;;;14.21;100.00;100905.50;5050874;28;20406;-82
2022/05/07 10:19:44;;;;;;;20.88;14.73;;;;;;;14.26;100.00;100905.78;5054424;28;20103;-82
2022/05/07 10:22:24;;;;;;;19.20;13.77;;;;;;;14.50;100.00;100892.34;5054929;28;20059;-82
2022/05/07 10:25:13;;;;;;;19.65;14.15;;;;;;;14.24;100.00;100894.50;5056600;28;20079;-88
2022/05/07 10:27:41;;;;;;;19.02;13.55;;;;;;;14.43;100.00;100897.56;5052965;28;20490;-84
2022/05/07 10:30:23;;;;;;;18.85;13.57;;;;;;;14.73;100.00;100890.47;5058822;28;20037;-81
2022/05/07 10:33:01;;;;;;;17.80;12.90;;;;;;;14.73;100.00;100882.47;5054795;28;20037;-80
2022/05/07 10:35:53;;;;;;;16.40;11.73;;;;;;;14.76;100.00;100884.78;5053812;28;20439;-81
2022/05/07 10:38:37;;;;;;;19.40;12.83;;;;;;;14.67;100.00;100877.84;5054882;28;20526;-81
2022/05/07 10:41:18;;;;;;;24.98;13.23;;;;;;;14.66;100.00;100881.53;5055658;28;20457;-82
2022/05/07 10:43:59;;;;;;;26.98;13.38;;;;;;;14.79;100.00;100881.75;5054702;28;20041;-83
2022/05/07 10:46:36;;;;;;;22.88;14.02;;;;;;;14.72;100.00;100875.47;5054712;28;20510;-84
2022/05/07 10:49:01;;;;;;;17.10;13.30;;;;;;;14.85;100.00;100878.34;5053598;28;20029;-81
2022/05/07 10:51:29;;;;;;;16.30;12.52;;;;;;;14.73;100.00;100871.78;5058320;28;20048;-85
2022/05/07 10:54:03;;;;;;;19.00;12.05;;;;;;;14.92;100.00;100875.78;5054162;28;20071;-84
2022/05/07 10:56:33;;;;;;;13.15;9.48;;;;;;;14.79;100.00;100871.06;5064614;28;20085;-84
2022/05/07 10:59:00;;;;;;;18.88;12.75;;;;;;;14.84;100.00;100868.69;5075450;28;20040;-82
2022/05/07 11:01:28;;;;;;;16.67;12.20;;;;;;;14.81;100.00;100869.06;5076730;28;20024;-84
2022/05/07 11:04:04;;;;;;;14.48;10.93;;;;;;;15.09;100.00;100866.59;5076921;28;20041;-82
2022/05/07 11:06:51;;;;;;;18.75;11.18;;;;;;;14.95;100.00;100860.25;5066978;28;20044;-81
2022/05/07 11:09:25;;;;;;;48.85;30.25;;;;;;;15.08;100.00;100859.59;5074178;28;20033;-81
2022/05/07 11:11:54;;;;;;;15.73;12.00;;;;;;;15.38;100.00;100860.44;5072771;28;20037;-83
2022/05/07 11:14:25;;;;;;;15.30;10.20;;;;;;;15.51;100.00;100850.78;5065287;28;20025;-83
2022/05/07 11:16:52;;;;;;;15.52;10.40;;;;;;;15.72;100.00;100855.38;5056794;28;20032;-83
2022/05/07 11:19:29;;;;;;;14.23;8.95;;;;;;;15.91;100.00;100854.78;5054206;28;20064;-86
2022/05/07 11:21:56;;;;;;;12.38;6.88;;;;;;;16.16;100.00;100849.06;5055215;28;20033;-84
2022/05/07 11:24:25;;;;;;;6.20;5.22;;;;;;;16.24;100.00;100852.44;5054598;28;20041;-85
2022/05/07 11:26:58;;;;;;;10.60;6.30;;;;;;;16.38;100.00;100845.38;5050892;28;20462;-83
2022/05/07 11:29:27;;;;;;;12.45;6.50;;;;;;;16.32;100.00;100840.78;5056348;28;20045;-85